Time;durP1;ratioP1;P1;durP2;ratioP2;P2;SDS_P1;SDS_P2;PMS_P1;PMS_P2;Temp;Humidity;BMP_temperature;BMP_pressure;BME280_temperature;BME280_humidity;BME280_pressure;Samples;Min_cycle;Max_cycle;Signal;HPM_P1;HPM_P2
2024/04/02 00:01:10;;;;;;;0.10;0.10;;;8.00;1.00;;;;;;4992970;28;20125;-86
2024/04/02 00:03:37;;;;;;;0.10;0.10;;;8.00;1.00;;;;;;4999263;28;20074;-85
2024/04/02 00:06:03;;;;;;;0.10;0.10;;;7.90;1.00;;;;;;4997134;28;20090;-84
2024/04/02 00:08:30;;;;;;;0.20;0.20;;;7.90;1.00;;;;;;4993445;28;20096;-86
2024/04/02 00:11:15;;;;;;;0.20;0.20;;;7.90;1.00;;;;;;4988211;28;20133;-84
2024/04/02 00:13:41;;;;;;;0.20;0.20;;;7.90;1.00;;;;;;4991182;28;20055;-85
2024/04/02 00:16:07;;;;;;;0.20;0.20;;;7.90;1.00;;;;;;4993159;28;20410;-85
2024/04/02 00:18:32;;;;;;;0.20;0.20;;;7.90;1.00;;;;;;4990627;28;20050;-84
2024/04/02 00:21:00;;;;;;;0.20;0.20;;;7.90;1.00;;;;;;4991570;28;20533;-85
2024/04/02 00:23:26;;;;;;;0.10;0.10;;;7.90;1.00;;;;;;4992793;28;20395;-85
2024/04/02 00:26:02;;;;;;;0.20;0.20;;;7.90;1.00;;;;;;4995960;28;20050;-85
2024/04/02 00:28:28;;;;;;;0.10;0.10;;;7.90;1.00;;;;;;4991879;28;20054;-84
2024/04/02 00:31:02;;;;;;;0.20;0.20;;;7.80;1.00;;;;;;4992190;28;20053;-85
2024/04/02 00:33:31;;;;;;;0.17;0.17;;;7.90;1.00;;;;;;4988169;28;20054;-85
2024/04/02 00:36:03;;;;;;;0.20;0.20;;;7.80;1.00;;;;;;4990785;28;20053;-85
2024/04/02 00:38:29;;;;;;;0.10;0.10;;;7.80;1.00;;;;;;4991471;28;20085;-87
2024/04/02 00:40:55;;;;;;;0.10;0.10;;;7.80;1.00;;;;;;4991526;28;20034;-86
2024/04/02 00:43:21;;;;;;;0.10;0.10;;;7.80;1.00;;;;;;4993632;28;20046;-85
2024/04/02 00:45:47;;;;;;;0.20;0.20;;;7.90;1.00;;;;;;4992160;28;20387;-86
2024/04/02 00:48:17;;;;;;;0.20;0.20;;;7.80;1.00;;;;;;4991432;28;20042;-85
2024/04/02 00:50:43;;;;;;;0.20;0.20;;;7.90;1.00;;;;;;4991457;28;20133;-85
2024/04/02 00:53:10;;;;;;;0.10;0.10;;;7.80;1.00;;;;;;4991825;28;20054;-85
2024/04/02 00:55:37;;;;;;;0.10;0.10;;;7.90;1.00;;;;;;4991761;28;20042;-84
2024/04/02 00:58:08;;;;;;;0.10;0.10;;;7.80;1.00;;;;;;5000012;28;20052;-85
2024/04/02 01:00:36;;;;;;;0.10;0.10;;;7.80;1.00;;;;;;4992356;28;20092;-85
2024/04/02 01:03:05;;;;;;;0.10;0.10;;;7.80;1.00;;;;;;4988993;28;20078;-85
2024/04/02 01:05:34;;;;;;;0.10;0.10;;;8.00;1.00;;;;;;4990991;28;20042;-85
2024/04/02 01:08:00;;;;;;;0.10;0.10;;;7.80;1.00;;;;;;4990844;28;20050;-85
2024/04/02 01:10:27;;;;;;;0.10;0.10;;;7.90;1.00;;;;;;4991651;28;20105;-86
2024/04/02 01:12:53;;;;;;;0.20;0.20;;;7.90;1.00;;;;;;4983642;28;20061;-85
2024/04/02 01:15:19;;;;;;;0.10;0.10;;;7.90;1.00;;;;;;4991252;28;20049;-84
2024/04/02 01:17:45;;;;;;;0.10;0.10;;;7.90;1.00;;;;;;4991988;28;20054;-85
2024/04/02 01:20:11;;;;;;;0.15;0.15;;;7.90;1.00;;;;;;4989934;28;20050;-87
2024/04/02 01:22:36;;;;;;;0.15;0.15;;;7.90;1.00;;;;;;4991655;28;20122;-87
2024/04/02 01:25:02;;;;;;;0.20;0.20;;;7.90;1.00;;;;;;4991354;28;20046;-86
2024/04/02 01:27:28;;;;;;;0.20;0.20;;;7.90;1.00;;;;;;4995845;28;20096;-84
2024/04/02 01:29:58;;;;;;;0.20;0.20;;;7.80;1.00;;;;;;4994438;28;20050;-85
2024/04/02 01:32:23;;;;;;;0.20;0.20;;;7.80;1.00;;;;;;4989957;28;20038;-85
2024/04/02 01:34:49;;;;;;;0.20;0.20;;;7.90;1.00;;;;;;4990081;28;20042;-84
2024/04/02 01:37:15;;;;;;;0.20;0.20;;;7.80;1.00;;;;;;4991082;28;20061;-85
2024/04/02 01:39:40;;;;;;;0.10;0.10;;;7.80;1.00;;;;;;4987819;28;20549;-85
2024/04/02 01:42:06;;;;;;;0.10;0.10;;;7.90;1.00;;;;;;4991369;28;20054;-84
2024/04/02 01:44:32;;;;;;;0.10;0.10;;;7.80;1.00;;;;;;4991600;28;20465;-84
2024/04/02 01:46:57;;;;;;;0.20;0.20;;;7.80;1.00;;;;;;4989734;28;20073;-84
2024/04/02 01:49:23;;;;;;;0.20;0.20;;;7.80;1.00;;;;;;4990759;28;20494;-87
2024/04/02 01:51:48;;;;;;;0.20;0.20;;;7.80;1.00;;;;;;4990172;28;20034;-84
2024/04/02 01:54:14;;;;;;;0.20;0.20;;;8.00;1.00;;;;;;4994609;28;20057;-85
2024/04/02 01:56:40;;;;;;;0.10;0.10;;;7.80;1.00;;;;;;4993701;28;20378;-84
2024/04/02 01:59:05;;;;;;;0.20;0.20;;;7.80;1.00;;;;;;4990656;28;20514;-85
2024/04/02 02:01:31;;;;;;;0.17;0.17;;;7.80;1.00;;;;;;4992571;28;20057;-85
2024/04/02 02:03:56;;;;;;;0.10;0.10;;;7.80;1.00;;;;;;4989172;28;20039;-84
2024/04/02 02:06:22;;;;;;;0.20;0.20;;;7.80;1.00;;;;;;4988892;28;20058;-84
2024/04/02 02:08:49;;;;;;;0.10;0.10;;;7.80;1.00;;;;;;4990039;28;20034;-84
2024/04/02 02:11:15;;;;;;;0.20;0.20;;;7.80;1.00;;;;;;4988122;28;20050;-85
2024/04/02 02:13:41;;;;;;;0.20;0.20;;;7.80;1.00;;;;;;4981167;28;20042;-84
2024/04/02 02:16:06;;;;;;;0.10;0.10;;;7.80;1.00;;;;;;4997672;28;20189;-84
2024/04/02 02:18:32;;;;;;;0.10;0.10;;;7.80;1.00;;;;;;4992748;28;20050;-86
2024/04/02 02:20:59;;;;;;;0.10;0.10;;;7.70;1.00;;;;;;4989569;28;20249;-84
2024/04/02 02:23:27;;;;;;;0.17;0.17;;;7.70;1.00;;;;;;4990565;28;20116;-86
2024/04/02 02:25:53;;;;;;;0.20;0.20;;;7.70;1.00;;;;;;4990437;28;20038;-86
2024/04/02 02:28:19;;;;;;;0.20;0.20;;;7.70;1.00;;;;;;4985072;28;20054;-84
2024/04/02 02:30:45;;;;;;;0.10;0.10;;;7.70;1.00;;;;;;4989745;28;20049;-85
2024/04/02 02:33:11;;;;;;;0.20;0.20;;;7.60;1.00;;;;;;4989385;28;20399;-83
2024/04/02 02:35:37;;;;;;;0.15;0.15;;;7.60;1.00;;;;;;4989775;28;20078;-83
2024/04/02 02:38:03;;;;;;;0.20;0.20;;;7.60;1.00;;;;;;4989256;28;20520;-84
2024/04/02 02:40:30;;;;;;;0.20;0.20;;;7.60;1.00;;;;;;4990543;28;20078;-84
2024/04/02 02:42:56;;;;;;;0.10;0.10;;;7.60;1.00;;;;;;4988817;28;20046;-83
2024/04/02 02:45:21;;;;;;;0.10;0.10;;;7.60;1.00;;;;;;4990670;28;20087;-84
2024/04/02 02:47:47;;;;;;;0.13;0.13;;;7.60;1.00;;;;;;4989790;28;20073;-84
2024/04/02 02:50:13;;;;;;;0.20;0.20;;;7.80;1.00;;;;;;4989013;28;20051;-85
2024/04/02 02:52:38;;;;;;;0.10;0.10;;;7.60;1.00;;;;;;4994682;28;20117;-84
2024/04/02 02:55:04;;;;;;;0.10;0.10;;;7.80;1.00;;;;;;5006707;28;20052;-84
2024/04/02 02:57:30;;;;;;;0.10;0.10;;;7.50;1.00;;;;;;4995864;28;20444;-86
2024/04/02 02:59:55;;;;;;;0.20;0.20;;;7.50;1.00;;;;;;4989499;28;20452;-85
2024/04/02 03:02:21;;;;;;;0.20;0.20;;;7.60;1.00;;;;;;4988613;28;20084;-86
2024/04/02 03:04:50;;;;;;;0.13;0.13;;;7.50;1.00;;;;;;4988020;28;20042;-84
2024/04/02 03:07:16;;;;;;;0.10;0.10;;;7.80;1.00;;;;;;4989136;28;20049;-84
2024/04/02 03:09:41;;;;;;;0.20;0.20;;;7.70;1.00;;;;;;4988708;28;20478;-85
2024/04/02 03:12:07;;;;;;;0.10;0.10;;;7.50;1.00;;;;;;4987215;28;20125;-84
2024/04/02 03:14:33;;;;;;;0.10;0.10;;;7.50;1.00;;;;;;4983289;28;20050;-85
2024/04/02 03:16:59;;;;;;;0.20;0.20;;;7.50;1.00;;;;;;4972881;28;20050;-87
2024/04/02 03:19:24;;;;;;;0.10;0.10;;;7.60;1.00;;;;;;4969796;28;20043;-86
2024/04/02 03:21:50;;;;;;;0.10;0.10;;;7.60;1.00;;;;;;4970146;28;20043;-85
2024/04/02 03:24:15;;;;;;;0.17;0.17;;;7.60;1.00;;;;;;4977860;28;20042;-84
2024/04/02 03:26:41;;;;;;;0.20;0.20;;;7.60;1.00;;;;;;5006003;28;20042;-84
2024/04/02 03:29:07;;;;;;;0.20;0.20;;;7.70;1.00;;;;;;5004662;28;20461;-85
2024/04/02 03:31:32;;;;;;;0.20;0.20;;;7.60;1.00;;;;;;4993248;28;20050;-86
2024/04/02 03:33:58;;;;;;;0.10;0.10;;;7.70;1.00;;;;;;4989879;28;20128;-85
2024/04/02 03:36:23;;;;;;;0.10;0.10;;;7.60;1.00;;;;;;5003500;28;20035;-84
2024/04/02 03:38:49;;;;;;;0.20;0.20;;;7.70;1.00;;;;;;4991176;28;20066;-85
2024/04/02 03:41:18;;;;;;;0.20;0.20;;;7.70;1.00;;;;;;4993900;28;20625;-83
2024/04/02 03:43:43;;;;;;;0.20;0.20;;;7.70;1.00;;;;;;4992475;28;20050;-83
2024/04/02 03:46:10;;;;;;;0.20;0.20;;;7.80;1.00;;;;;;5002659;28;20057;-86
2024/04/02 03:48:37;;;;;;;0.10;0.10;;;7.70;1.00;;;;;;4993265;28;20124;-86
2024/04/02 03:51:02;;;;;;;0.20;0.20;;;7.70;1.00;;;;;;4993663;28;20046;-84
2024/04/02 03:53:29;;;;;;;0.10;0.10;;;7.80;1.00;;;;;;4992197;28;20141;-85
2024/04/02 03:56:03;;;;;;;0.15;0.15;;;7.80;1.00;;;;;;4992428;28;20148;-84
2024/04/02 03:58:29;;;;;;;0.10;0.10;;;7.80;1.00;;;;;;4992787;28;20073;-85
2024/04/02 04:00:56;;;;;;;0.10;0.10;;;7.80;1.00;;;;;;4993298;28;20043;-87
2024/04/02 04:03:26;;;;;;;0.10;0.10;;;7.80;1.00;;;;;;4974682;28;20050;-84
2024/04/02 04:06:05;;;;;;;0.10;0.10;;;7.80;1.00;;;;;;4991976;28;20114;-82
2024/04/02 04:08:32;;;;;;;0.10;0.10;;;7.80;1.00;;;;;;4987145;28;20054;-87
2024/04/02 04:10:58;;;;;;;0.10;0.10;;;7.80;1.00;;;;;;4988624;28;20055;-84
2024/04/02 04:13:23;;;;;;;0.20;0.20;;;7.70;1.00;;;;;;4991291;28;20053;-85
2024/04/02 04:15:53;;;;;;;0.10;0.10;;;7.70;1.00;;;;;;4987102;28;20125;-83
2024/04/02 04:18:20;;;;;;;0.10;0.10;;;7.70;1.00;;;;;;4981114;28;20125;-86
2024/04/02 04:20:52;;;;;;;0.10;0.10;;;7.70;1.00;;;;;;4995565;28;20050;-83
2024/04/02 04:23:18;;;;;;;0.10;0.10;;;7.70;1.00;;;;;;4974889;28;20046;-84
2024/04/02 04:25:43;;;;;;;0.20;0.20;;;7.70;1.00;;;;;;4992326;28;20054;-83
2024/04/02 04:28:09;;;;;;;0.10;0.10;;;7.70;1.00;;;;;;4991678;28;20046;-85
2024/04/02 04:30:35;;;;;;;0.20;0.20;;;7.80;1.00;;;;;;4992276;28;20050;-86
2024/04/02 04:33:01;;;;;;;0.20;0.20;;;7.60;1.00;;;;;;5006036;28;20528;-85
2024/04/02 04:35:27;;;;;;;0.20;0.20;;;7.60;1.00;;;;;;4992951;28;20117;-84
2024/04/02 04:37:52;;;;;;;0.20;0.20;;;7.70;1.00;;;;;;4990912;28;20066;-86
2024/04/02 04:40:18;;;;;;;0.20;0.20;;;7.60;1.00;;;;;;4992350;28;20048;-85
2024/04/02 04:42:44;;;;;;;0.20;0.20;;;7.60;1.00;;;;;;4991693;28;20468;-84
2024/04/02 04:45:09;;;;;;;0.10;0.10;;;7.50;1.00;;;;;;4992311;28;20042;-85
2024/04/02 04:47:35;;;;;;;0.10;0.10;;;7.50;1.00;;;;;;4993688;28;20125;-84
2024/04/02 04:50:01;;;;;;;0.20;0.20;;;7.50;1.00;;;;;;4990794;28;20467;-85
2024/04/02 04:52:27;;;;;;;0.13;0.13;;;7.50;1.00;;;;;;4992490;28;20101;-86
2024/04/02 04:54:52;;;;;;;0.10;0.10;;;7.50;1.00;;;;;;4990960;28;20051;-85
2024/04/02 04:57:18;;;;;;;0.20;0.20;;;7.50;1.00;;;;;;4992118;28;20042;-85
2024/04/02 04:59:43;;;;;;;0.20;0.20;;;7.50;1.00;;;;;;4991436;28;20038;-83
2024/04/02 05:02:09;;;;;;;0.10;0.10;;;7.50;1.00;;;;;;4990728;28;20050;-83
2024/04/02 05:04:35;;;;;;;0.20;0.20;;;7.50;1.00;;;;;;4989869;28;20073;-84
2024/04/02 05:07:00;;;;;;;0.20;0.20;;;7.50;1.00;;;;;;4994704;28;20092;-88
2024/04/02 05:09:26;;;;;;;0.10;0.10;;;7.50;1.00;;;;;;4991517;28;20042;-87
2024/04/02 05:11:51;;;;;;;0.20;0.20;;;7.70;1.00;;;;;;4988991;28;20058;-87
2024/04/02 05:14:17;;;;;;;0.17;0.17;;;7.50;1.00;;;;;;4987506;28;20454;-85
2024/04/02 05:16:45;;;;;;;0.10;0.10;;;7.50;1.00;;;;;;4992361;28;20046;-85
2024/04/02 05:19:11;;;;;;;0.10;0.10;;;7.50;1.00;;;;;;4991140;28;20042;-84
2024/04/02 05:21:37;;;;;;;0.10;0.10;;;7.50;1.00;;;;;;4992038;28;20050;-85
2024/04/02 05:24:03;;;;;;;0.20;0.20;;;7.50;1.00;;;;;;4990907;28;20046;-87
2024/04/02 05:26:28;;;;;;;0.10;0.10;;;7.50;1.00;;;;;;4990206;28;20486;-85
2024/04/02 05:28:54;;;;;;;0.10;0.10;;;7.50;1.00;;;;;;4991050;28;20042;-86
2024/04/02 05:31:20;;;;;;;0.10;0.10;;;7.50;1.00;;;;;;4992414;28;20049;-88
2024/04/02 05:33:45;;;;;;;0.20;0.20;;;7.50;1.00;;;;;;4992372;28;20121;-86
2024/04/02 05:36:11;;;;;;;0.10;0.10;;;7.50;1.00;;;;;;5002303;28;20101;-87
2024/04/02 05:38:37;;;;;;;0.10;0.10;;;7.50;1.00;;;;;;5000284;28;20046;-89
2024/04/02 05:41:03;;;;;;;0.10;0.10;;;7.50;1.00;;;;;;4997995;28;20046;-86
2024/04/02 05:43:28;;;;;;;0.20;0.20;;;7.50;1.00;;;;;;5005004;28;20106;-87
2024/04/02 05:45:54;;;;;;;0.10;0.10;;;7.50;1.00;;;;;;4997982;28;20043;-84
2024/04/02 05:48:20;;;;;;;0.20;0.20;;;7.60;1.00;;;;;;4990218;28;20046;-86
2024/04/02 05:50:55;;;;;;;0.20;0.20;;;7.60;1.00;;;;;;4992314;28;20039;-84
2024/04/02 05:53:21;;;;;;;0.13;0.13;;;7.60;1.00;;;;;;4990333;28;20079;-88
2024/04/02 05:55:47;;;;;;;0.20;0.20;;;7.60;1.00;;;;;;4991065;28;20078;-85
2024/04/02 05:58:13;;;;;;;0.13;0.13;;;7.60;1.00;;;;;;4990958;28;20153;-85
2024/04/02 06:00:38;;;;;;;0.10;0.10;;;7.70;1.00;;;;;;4990875;28;20550;-83
2024/04/02 06:03:04;;;;;;;0.17;0.17;;;7.70;1.00;;;;;;4991938;28;20043;-86
2024/04/02 06:05:29;;;;;;;0.10;0.10;;;7.70;1.00;;;;;;4987063;28;20490;-85
2024/04/02 06:07:57;;;;;;;0.20;0.20;;;7.80;1.00;;;;;;5002315;28;20085;-84
2024/04/02 06:10:23;;;;;;;0.20;0.20;;;7.90;1.00;;;;;;5010658;28;20137;-83
2024/04/02 06:12:49;;;;;;;0.15;0.15;;;7.90;1.00;;;;;;4988040;28;20422;-87
2024/04/02 06:15:14;;;;;;;0.10;0.10;;;8.00;1.00;;;;;;4991613;28;20050;-87
2024/04/02 06:17:40;;;;;;;0.20;0.20;;;8.10;1.00;;;;;;4984141;28;20049;-85
2024/04/02 06:20:06;;;;;;;0.20;0.20;;;8.10;1.00;;;;;;4988092;28;20479;-84
2024/04/02 06:22:32;;;;;;;0.20;0.20;;;8.20;1.00;;;;;;5006055;28;20262;-87
2024/04/02 06:24:59;;;;;;;0.20;0.20;;;8.20;1.00;;;;;;4989585;28;20057;-85
2024/04/02 06:27:24;;;;;;;0.10;0.10;;;8.40;1.00;;;;;;4990102;28;20042;-84
2024/04/02 06:29:52;;;;;;;0.17;0.17;;;8.40;1.00;;;;;;4987480;28;20050;-83
2024/04/02 06:32:18;;;;;;;0.10;0.10;;;8.60;1.00;;;;;;4992530;28;20050;-85
2024/04/02 06:34:44;;;;;;;0.10;0.10;;;8.80;1.00;;;;;;5020401;28;20040;-86
2024/04/02 06:37:09;;;;;;;0.20;0.20;;;9.10;1.00;;;;;;4990524;28;20054;-85
2024/04/02 06:39:35;;;;;;;0.20;0.20;;;9.20;1.00;;;;;;4995088;28;20049;-85
2024/04/02 06:42:01;;;;;;;0.17;0.17;;;9.30;1.00;;;;;;5009413;28;20081;-86
2024/04/02 06:44:26;;;;;;;0.10;0.10;;;9.20;1.00;;;;;;5009201;28;20045;-84
2024/04/02 06:46:52;;;;;;;0.10;0.10;;;9.20;1.00;;;;;;4990025;28;20061;-85
2024/04/02 06:49:18;;;;;;;0.20;0.20;;;9.10;1.00;;;;;;4988986;28;20101;-86
2024/04/02 06:51:43;;;;;;;0.20;0.20;;;9.10;1.00;;;;;;4989241;28;20406;-88
2024/04/02 06:54:09;;;;;;;0.10;0.10;;;9.10;1.00;;;;;;4991452;28;20046;-87
2024/04/02 06:56:35;;;;;;;0.13;0.13;;;9.20;1.00;;;;;;4990622;28;20049;-86
2024/04/02 06:59:01;;;;;;;0.10;0.10;;;9.60;1.00;;;;;;4993137;28;20466;-85
2024/04/02 07:01:26;;;;;;;0.10;0.10;;;10.00;1.00;;;;;;5011105;28;20049;-89
2024/04/02 07:03:52;;;;;;;0.20;0.20;;;10.20;1.00;;;;;;4998040;28;20513;-86
2024/04/02 07:06:17;;;;;;;0.10;0.10;;;10.20;1.00;;;;;;5006349;28;20053;-87
2024/04/02 07:08:46;;;;;;;0.20;0.20;;;10.20;1.00;;;;;;5018314;28;20113;-84
2024/04/02 07:11:12;;;;;;;0.10;0.10;;;10.00;1.00;;;;;;5004349;28;20047;-85
2024/04/02 07:13:39;;;;;;;0.10;0.10;;;10.20;1.00;;;;;;4974121;28;21407;-84
2024/04/02 07:16:05;;;;;;;0.10;0.10;;;9.90;1.00;;;;;;5007685;28;20407;-87
2024/04/02 07:18:35;;;;;;;0.10;0.10;;;9.90;1.00;;;;;;4983940;28;20039;-86
2024/04/02 07:21:05;;;;;;;0.20;0.20;;;9.80;1.00;;;;;;4975768;28;20076;-86
2024/04/02 07:23:32;;;;;;;0.20;0.20;;;9.80;1.00;;;;;;4992441;28;20101;-87
2024/04/02 07:25:57;;;;;;;0.20;0.20;;;9.90;1.00;;;;;;4989672;28;20592;-86
2024/04/02 07:28:23;;;;;;;0.10;0.10;;;9.80;1.00;;;;;;4987384;28;20585;-86
2024/04/02 07:30:49;;;;;;;0.10;0.10;;;10.00;1.00;;;;;;4971256;28;20049;-89
2024/04/02 07:33:16;;;;;;;0.20;0.20;;;9.90;1.00;;;;;;4969852;28;20055;-87
2024/04/02 07:35:44;;;;;;;0.20;0.20;;;10.10;1.00;;;;;;4969193;28;20045;-87
2024/04/02 07:38:11;;;;;;;0.10;0.10;;;10.00;1.00;;;;;;4968026;28;20138;-89
2024/04/02 07:40:36;;;;;;;0.10;0.10;;;10.30;1.00;;;;;;4971086;28;20169;-87
2024/04/02 07:43:03;;;;;;;0.20;0.20;;;10.00;1.00;;;;;;4969879;28;20141;-87
2024/04/02 07:45:29;;;;;;;0.13;0.13;;;10.10;1.00;;;;;;4989513;28;20511;-88
2024/04/02 07:47:54;;;;;;;0.10;0.10;;;10.20;1.00;;;;;;4988269;28;20046;-86
2024/04/02 07:50:20;;;;;;;0.10;0.10;;;10.20;1.00;;;;;;4988523;28;20130;-87
2024/04/02 07:52:46;;;;;;;0.10;0.10;;;10.30;1.00;;;;;;4988597;28;20132;-86
2024/04/02 07:55:12;;;;;;;0.10;0.10;;;10.40;1.00;;;;;;4990227;28;20166;-89
2024/04/02 07:57:37;;;;;;;0.10;0.10;;;10.50;1.00;;;;;;4989320;28;20050;-86
2024/04/02 08:00:03;;;;;;;0.10;0.10;;;10.60;1.00;;;;;;4989541;28;20112;-86
2024/04/02 08:02:29;;;;;;;0.20;0.20;;;10.60;1.00;;;;;;4994486;28;20026;-88
2024/04/02 08:04:55;;;;;;;0.10;0.10;;;10.70;1.00;;;;;;4993682;28;20042;-87
2024/04/02 08:07:21;;;;;;;0.10;0.10;;;10.90;1.00;;;;;;4969728;28;20057;-87
2024/04/02 08:09:47;;;;;;;0.10;0.10;;;10.80;1.00;;;;;;4970003;28;20043;-88
2024/04/02 08:12:13;;;;;;;0.20;0.20;;;11.00;1.00;;;;;;4980868;28;20047;-85
2024/04/02 08:14:39;;;;;;;0.10;0.10;;;11.00;1.00;;;;;;5006492;28;20114;-86
2024/04/02 08:17:05;;;;;;;0.17;0.17;;;11.10;1.00;;;;;;4994435;28;20046;-87
2024/04/02 08:19:31;;;;;;;0.10;0.10;;;11.10;1.00;;;;;;4984866;28;20382;-85
2024/04/02 08:21:56;;;;;;;0.10;0.10;;;11.20;1.00;;;;;;4993493;28;20057;-87
2024/04/02 08:24:24;;;;;;;0.10;0.10;;;11.20;1.00;;;;;;4994298;28;20061;-88
2024/04/02 08:26:52;;;;;;;0.20;0.20;;;11.20;1.00;;;;;;4994257;28;20126;-87
2024/04/02 08:29:18;;;;;;;0.10;0.10;;;11.30;1.00;;;;;;5011857;28;20039;-85
2024/04/02 08:31:44;;;;;;;0.10;0.10;;;11.20;1.00;;;;;;4997159;28;20133;-87
2024/04/02 08:34:10;;;;;;;0.20;0.20;;;11.30;1.00;;;;;;4993086;28;20556;-88
2024/04/02 08:36:37;;;;;;;0.10;0.10;;;11.40;1.00;;;;;;4993090;28;20104;-88
2024/04/02 08:39:03;;;;;;;0.20;0.20;;;11.30;1.00;;;;;;4992836;28;20054;-87
2024/04/02 08:41:29;;;;;;;0.10;0.10;;;11.30;1.00;;;;;;4992565;28;20110;-87
2024/04/02 08:43:57;;;;;;;0.20;0.20;;;11.30;1.00;;;;;;5006710;28;20181;-86
2024/04/02 08:46:26;;;;;;;0.10;0.10;;;11.40;1.00;;;;;;4998063;28;20050;-83
2024/04/02 08:48:53;;;;;;;0.13;0.13;;;11.60;1.00;;;;;;5007404;28;20050;-87
2024/04/02 08:51:20;;;;;;;0.10;0.10;;;11.50;1.00;;;;;;4997822;28;20046;-85
2024/04/02 08:53:46;;;;;;;0.17;0.17;;;11.50;1.00;;;;;;5022733;28;20062;-87
2024/04/02 08:56:16;;;;;;;0.28;0.28;;;11.60;1.00;;;;;;5013639;28;20489;-84
2024/04/02 08:58:46;;;;;;;0.20;0.20;;;11.70;1.00;;;;;;4995283;28;20134;-84
2024/04/02 09:01:15;;;;;;;0.20;0.20;;;11.60;1.00;;;;;;4992440;28;20128;-86
2024/04/02 09:03:41;;;;;;;0.20;0.20;;;11.70;1.00;;;;;;4994484;28;20042;-85
2024/04/02 09:06:08;;;;;;;0.10;0.10;;;11.60;1.00;;;;;;4988083;28;20056;-87
2024/04/02 09:08:46;;;;;;;0.20;0.20;;;11.60;1.00;;;;;;4970662;28;20055;-84
2024/04/02 09:11:13;;;;;;;0.10;0.10;;;11.70;1.00;;;;;;4976554;28;20074;-83
2024/04/02 09:13:39;;;;;;;0.10;0.10;;;11.60;1.00;;;;;;4990253;28;20066;-86
2024/04/02 09:16:06;;;;;;;0.10;0.10;;;11.70;1.00;;;;;;4991273;28;20073;-85
2024/04/02 09:18:35;;;;;;;0.10;0.10;;;11.60;1.00;;;;;;4987890;28;20073;-86
2024/04/02 09:21:01;;;;;;;0.10;0.10;;;11.70;1.00;;;;;;4975659;28;20050;-86
2024/04/02 09:23:28;;;;;;;0.13;0.13;;;11.80;1.00;;;;;;4991642;28;20053;-87
2024/04/02 09:25:57;;;;;;;0.10;0.10;;;11.90;1.00;;;;;;4992064;28;20042;-88
2024/04/02 09:28:23;;;;;;;0.10;0.10;;;12.20;1.00;;;;;;5007717;28;20050;-85
2024/04/02 09:30:49;;;;;;;0.10;0.10;;;12.20;1.00;;;;;;5011114;28;20048;-85
2024/04/02 09:33:18;;;;;;;0.10;0.10;;;12.00;1.00;;;;;;5012296;28;20070;-86
2024/04/02 09:36:05;;;;;;;0.10;0.10;;;12.00;1.00;;;;;;5011229;28;20050;-86
2024/04/02 09:38:33;;;;;;;0.10;0.10;;;12.00;1.00;;;;;;5011281;28;20045;-86
2024/04/02 09:41:00;;;;;;;0.10;0.10;;;12.30;1.00;;;;;;5011391;28;20089;-88
2024/04/02 09:43:31;;;;;;;0.13;0.13;;;12.20;1.00;;;;;;4990814;28;20050;-87
2024/04/02 09:46:01;;;;;;;0.17;0.17;;;12.30;1.00;;;;;;4994779;28;20046;-87
2024/04/02 09:48:33;;;;;;;0.20;0.20;;;12.50;1.00;;;;;;5010803;28;20045;-86
2024/04/02 09:51:00;;;;;;;0.10;0.10;;;12.70;1.00;;;;;;5002779;28;20054;-86
2024/04/02 09:53:28;;;;;;;0.10;0.10;;;12.90;1.00;;;;;;4989232;28;20043;-86
2024/04/02 09:55:55;;;;;;;0.10;0.10;;;13.00;1.00;;;;;;4991699;28;20085;-86
2024/04/02 09:58:21;;;;;;;0.20;0.20;;;13.10;1.00;;;;;;4997347;28;20054;-85
2024/04/02 10:00:59;;;;;;;0.10;0.10;;;13.10;1.00;;;;;;4991102;28;20043;-86
2024/04/02 10:03:28;;;;;;;0.10;0.10;;;13.10;1.00;;;;;;4990208;28;20427;-85
2024/04/02 10:06:02;;;;;;;0.10;0.10;;;13.20;1.00;;;;;;4991218;28;20129;-88
2024/04/02 10:08:27;;;;;;;0.10;0.10;;;13.20;1.00;;;;;;4988438;28;20418;-89
2024/04/02 10:10:55;;;;;;;0.17;0.17;;;13.30;1.00;;;;;;4989720;28;20101;-85
2024/04/02 10:13:21;;;;;;;0.10;0.10;;;13.30;1.00;;;;;;4980948;28;20046;-86
2024/04/02 10:15:53;;;;;;;0.20;0.20;;;13.40;1.00;;;;;;4991109;28;20042;-87
2024/04/02 10:18:23;;;;;;;0.10;0.10;;;13.50;1.00;;;;;;4989029;28;20600;-85
2024/04/02 10:20:59;;;;;;;0.10;0.10;;;13.50;1.00;;;;;;4973496;28;20043;-87
2024/04/02 10:23:25;;;;;;;0.13;0.13;;;13.50;1.00;;;;;;4978627;28;20496;-85
2024/04/02 10:25:52;;;;;;;0.20;0.20;;;13.40;1.00;;;;;;4990388;28;20090;-87
2024/04/02 10:28:26;;;;;;;0.20;0.20;;;13.40;1.00;;;;;;4990467;28;20141;-86
2024/04/02 10:30:52;;;;;;;0.20;0.20;;;13.40;1.00;;;;;;4991388;28;20093;-87
2024/04/02 10:33:21;;;;;;;0.17;0.17;;;13.40;1.00;;;;;;4989431;28;20054;-87
2024/04/02 10:35:47;;;;;;;0.20;0.20;;;13.40;1.00;;;;;;4992889;28;20058;-86
2024/04/02 10:38:14;;;;;;;0.10;0.10;;;13.30;1.00;;;;;;4990580;28;20096;-88
2024/04/02 10:40:39;;;;;;;0.10;0.10;;;13.30;1.00;;;;;;5003219;28;20045;-84
2024/04/02 10:43:05;;;;;;;0.20;0.20;;;13.20;1.00;;;;;;4996843;28;20497;-88
2024/04/02 10:45:31;;;;;;;0.10;0.10;;;13.20;1.00;;;;;;4998689;28;20490;-87
2024/04/02 10:47:57;;;;;;;0.10;0.10;;;13.30;1.00;;;;;;4989602;28;20395;-87
2024/04/02 10:50:24;;;;;;;0.10;0.10;;;13.30;1.00;;;;;;4989883;28;20514;-85
2024/04/02 10:52:51;;;;;;;0.13;0.13;;;13.30;1.00;;;;;;4990005;28;20050;-86
2024/04/02 10:55:17;;;;;;;0.10;0.10;;;13.20;1.00;;;;;;4990164;28;20053;-89
2024/04/02 10:57:42;;;;;;;0.10;0.10;;;13.10;1.00;;;;;;5000140;28;20038;-85
2024/04/02 11:00:11;;;;;;;0.20;0.20;;;13.00;1.00;;;;;;4991443;28;20493;-88
2024/04/02 11:02:38;;;;;;;0.20;0.20;;;13.00;1.00;;;;;;4991386;28;20446;-89
2024/04/02 11:05:06;;;;;;;0.10;0.10;;;12.90;1.00;;;;;;4989521;28;20085;-89
2024/04/02 11:07:33;;;;;;;0.10;0.10;;;12.90;1.00;;;;;;4994891;28;20053;-86
2024/04/02 11:09:59;;;;;;;0.20;0.20;;;12.90;1.00;;;;;;4988222;28;20046;-88
2024/04/02 11:12:26;;;;;;;0.20;0.20;;;12.80;1.00;;;;;;5002317;28;20609;-88
2024/04/02 11:14:55;;;;;;;0.10;0.10;;;12.90;1.00;;;;;;4994561;28;20042;-89
2024/04/02 11:17:22;;;;;;;0.10;0.10;;;12.90;1.00;;;;;;4994170;28;20043;-94
2024/04/02 11:19:48;;;;;;;0.20;0.20;;;12.90;1.00;;;;;;4993788;28;20038;-91
2024/04/02 11:25:14;;;;;;;0.13;0.13;;;12.90;1.00;;;;;;5007882;28;20063;-89
2024/04/02 11:27:41;;;;;;;0.10;0.10;;;12.80;1.00;;;;;;4991827;28;20074;-87
2024/04/02 11:30:07;;;;;;;0.20;0.20;;;12.90;1.00;;;;;;4993242;28;20471;-92
2024/04/02 11:32:34;;;;;;;0.10;0.10;;;12.90;1.00;;;;;;4991676;28;20125;-86
2024/04/02 11:35:11;;;;;;;0.20;0.20;;;13.00;1.00;;;;;;4993143;28;20136;-92
2024/04/02 11:37:37;;;;;;;0.10;0.10;;;13.10;1.00;;;;;;4991508;28;20498;-87
2024/04/02 11:40:04;;;;;;;0.20;0.20;;;13.20;1.00;;;;;;4991498;28;20052;-91
2024/04/02 11:42:30;;;;;;;0.20;0.20;;;13.30;1.00;;;;;;4998895;28;20046;-91
2024/04/02 11:45:00;;;;;;;0.10;0.10;;;13.30;1.00;;;;;;4997583;28;20045;-90
2024/04/02 11:47:33;;;;;;;0.10;0.10;;;13.40;1.00;;;;;;4994747;28;20050;-87
2024/04/02 11:49:59;;;;;;;0.10;0.10;;;13.50;1.00;;;;;;4982031;28;20126;-91
2024/04/02 11:52:25;;;;;;;0.10;0.10;;;13.50;1.00;;;;;;4995355;28;20050;-91
2024/04/02 11:54:51;;;;;;;0.10;0.10;;;13.50;1.00;;;;;;4995188;28;20057;-92
2024/04/02 12:00:19;;;;;;;0.10;0.10;;;13.40;1.00;;;;;;5011009;28;20054;-90
2024/04/02 12:02:46;;;;;;;0.20;0.20;;;13.30;1.00;;;;;;4995289;28;20046;-91
2024/04/02 12:05:12;;;;;;;0.10;0.10;;;13.40;1.00;;;;;;4992013;28;20042;-89
2024/04/02 12:07:38;;;;;;;0.10;0.10;;;13.40;1.00;;;;;;5005060;28;20042;-85
2024/04/02 12:10:06;;;;;;;0.10;0.10;;;13.50;1.00;;;;;;4989483;28;20049;-84
2024/04/02 12:12:33;;;;;;;0.10;0.10;;;13.60;1.00;;;;;;4989728;28;20093;-87
2024/04/02 12:15:00;;;;;;;0.10;0.10;;;13.70;1.00;;;;;;4980240;28;20518;-85
2024/04/02 12:17:26;;;;;;;0.13;0.13;;;13.80;1.00;;;;;;4995155;28;20042;-89
2024/04/02 12:19:55;;;;;;;0.10;0.10;;;14.00;1.00;;;;;;5006705;28;20122;-87
2024/04/02 12:22:25;;;;;;;0.10;0.10;;;14.00;1.00;;;;;;4998417;28;20517;-86
2024/04/02 12:24:51;;;;;;;0.20;0.20;;;14.20;1.00;;;;;;5004893;28;20402;-90
2024/04/02 12:27:19;;;;;;;0.20;0.20;;;14.30;1.00;;;;;;5000480;28;20482;-86
2024/04/02 12:29:45;;;;;;;0.20;0.20;;;14.40;1.00;;;;;;5016114;28;20042;-89
2024/04/02 12:32:11;;;;;;;0.20;0.20;;;14.40;1.00;;;;;;5025106;28;20057;-84
2024/04/02 12:34:41;;;;;;;0.10;0.10;;;14.40;1.00;;;;;;5001709;28;20054;-89
2024/04/02 12:37:07;;;;;;;0.10;0.10;;;14.30;1.00;;;;;;5005573;28;20074;-86
2024/04/02 12:39:36;;;;;;;0.17;0.17;;;14.50;1.00;;;;;;4990763;28;20046;-88
2024/04/02 12:42:03;;;;;;;0.10;0.10;;;14.50;1.00;;;;;;4991690;28;20061;-86
2024/04/02 12:44:30;;;;;;;0.20;0.20;;;14.40;1.00;;;;;;4990987;28;20056;-88
2024/04/02 12:46:59;;;;;;;0.10;0.10;;;14.40;1.00;;;;;;4998998;28;20050;-90
2024/04/02 12:49:26;;;;;;;0.20;0.20;;;14.30;1.00;;;;;;4990650;28;20502;-87
2024/04/02 12:51:52;;;;;;;0.10;0.10;;;14.30;1.00;;;;;;4991929;28;20141;-89
2024/04/02 12:54:18;;;;;;;0.10;0.10;;;14.30;1.00;;;;;;5008875;28;20042;-88
2024/04/02 12:56:44;;;;;;;0.20;0.20;;;14.30;1.00;;;;;;4997358;28;20038;-87
2024/04/02 12:59:10;;;;;;;0.10;0.10;;;14.40;1.00;;;;;;4997427;28;20125;-92
2024/04/02 13:01:35;;;;;;;0.20;0.20;;;14.50;1.00;;;;;;4993427;28;20053;-88
2024/04/02 13:04:01;;;;;;;0.10;0.10;;;14.70;1.00;;;;;;4998136;28;20080;-92
2024/04/02 13:06:27;;;;;;;0.20;0.20;;;15.10;1.00;;;;;;4996908;28;20129;-90